createdAt,value
2017-12-09T00:01:39.274Z,2.27
2017-12-09T00:04:11.715Z,2.97
2017-12-09T00:06:44.396Z,2.20
2017-12-09T00:09:17.712Z,2.67
2017-12-09T00:11:50.420Z,2.43
2017-12-09T00:14:22.864Z,2.23
2017-12-09T00:16:56.207Z,2.40
2017-12-09T00:19:29.276Z,1.80
2017-12-09T00:22:02.238Z,1.93
2017-12-09T00:24:34.999Z,1.90
2017-12-09T00:27:08.035Z,2.07
2017-12-09T00:29:40.683Z,1.80
2017-12-09T00:32:13.161Z,2.63
2017-12-09T00:34:45.635Z,2.23
2017-12-09T00:37:19.054Z,2.17
2017-12-09T00:39:52.761Z,1.40
2017-12-09T00:42:25.361Z,1.60
2017-12-09T00:44:57.880Z,1.57
2017-12-09T00:47:30.488Z,1.67
2017-12-09T00:50:03.065Z,1.87
2017-12-09T00:52:35.541Z,1.60
2017-12-09T00:55:08.859Z,1.90
2017-12-09T00:57:42.182Z,2.27
2017-12-09T01:00:14.594Z,2.47
2017-12-09T01:02:47.397Z,1.87
2017-12-09T01:05:20.671Z,2.27
2017-12-09T01:07:53.393Z,1.70
2017-12-09T01:10:26.622Z,1.50
2017-12-09T01:12:59.331Z,1.53
2017-12-09T01:15:50.355Z,1.60
2017-12-09T01:18:41.462Z,2.30
2017-12-09T01:21:14.388Z,1.50
2017-12-09T01:23:46.882Z,1.73
2017-12-09T01:26:19.413Z,2.23
2017-12-09T01:28:52.065Z,2.70
2017-12-09T01:31:24.816Z,2.37
2017-12-09T01:33:58.721Z,2.37
2017-12-09T01:36:31.797Z,3.10
2017-12-09T01:39:04.675Z,1.63
2017-12-09T01:41:37.940Z,2.60
2017-12-09T01:44:10.862Z,2.83
2017-12-09T01:46:44.224Z,2.50
2017-12-09T01:49:16.693Z,2.50
2017-12-09T01:51:49.279Z,1.90
2017-12-09T01:54:21.840Z,3.40
2017-12-09T01:56:54.701Z,3.33
2017-12-09T01:59:27.851Z,3.33
2017-12-09T02:02:00.566Z,3.20
2017-12-09T02:04:33.809Z,3.07
2017-12-09T02:07:06.344Z,3.03
2017-12-09T02:09:38.744Z,2.57
2017-12-09T02:12:11.270Z,2.80
2017-12-09T02:14:44.560Z,3.13
2017-12-09T02:17:17.263Z,2.53
2017-12-09T02:19:49.735Z,2.80
2017-12-09T02:22:22.249Z,3.17
2017-12-09T02:24:54.657Z,2.73
2017-12-09T02:27:27.276Z,2.57
2017-12-09T02:30:00.615Z,2.10
2017-12-09T02:32:34.437Z,2.60
2017-12-09T02:35:07.119Z,2.50
2017-12-09T02:37:40.563Z,3.50
2017-12-09T02:40:13.020Z,2.90
2017-12-09T02:42:45.705Z,3.57
2017-12-09T02:45:18.523Z,3.03
2017-12-09T02:47:51.504Z,2.30
2017-12-09T02:50:24.002Z,3.20
2017-12-09T02:52:56.482Z,2.87
2017-12-09T02:55:29.138Z,3.53
2017-12-09T02:58:02.457Z,2.97
2017-12-09T03:00:35.256Z,2.90
2017-12-09T03:03:07.967Z,2.57
2017-12-09T03:05:40.596Z,2.23
2017-12-09T03:08:14.198Z,3.10
2017-12-09T03:10:47.472Z,2.43
2017-12-09T03:13:20.846Z,2.80
2017-12-09T03:15:53.316Z,3.07
2017-12-09T03:18:25.716Z,3.00
2017-12-09T03:20:58.271Z,3.77
2017-12-09T03:23:30.701Z,3.20
2017-12-09T03:26:03.242Z,2.90
2017-12-09T03:28:36.503Z,2.87
2017-12-09T03:31:09.009Z,3.10
2017-12-09T03:33:41.505Z,3.00
2017-12-09T03:36:13.980Z,2.30
2017-12-09T03:38:47.290Z,2.93
2017-12-09T03:41:19.966Z,3.10
2017-12-09T03:43:52.380Z,3.30
2017-12-09T03:46:24.942Z,2.80
2017-12-09T03:48:57.614Z,2.67
2017-12-09T03:51:30.848Z,2.40
2017-12-09T03:54:04.361Z,2.97
2017-12-09T03:56:37.652Z,2.83
2017-12-09T03:59:11.051Z,3.23
2017-12-09T04:01:44.496Z,3.17
2017-12-09T04:04:17.282Z,2.80
2017-12-09T04:06:49.969Z,3.93
2017-12-09T04:09:22.408Z,3.43
2017-12-09T04:11:55.017Z,3.13
2017-12-09T04:14:28.472Z,3.50
2017-12-09T04:17:01.984Z,3.00
2017-12-09T04:19:34.789Z,3.50
2017-12-09T04:22:08.102Z,3.20
2017-12-09T04:24:40.730Z,3.53
2017-12-09T04:27:13.877Z,3.97
2017-12-09T04:29:47.649Z,3.00
2017-12-09T04:32:20.323Z,3.20
2017-12-09T04:34:53.722Z,3.23
2017-12-09T04:37:26.389Z,2.73
2017-12-09T04:39:59.584Z,3.07
2017-12-09T04:42:32.248Z,2.60
2017-12-09T04:45:05.556Z,3.27
2017-12-09T04:47:38.322Z,2.77
2017-12-09T04:50:12.446Z,3.10
2017-12-09T04:52:45.957Z,2.70
2017-12-09T04:55:18.703Z,2.60
2017-12-09T04:57:52.132Z,2.43
2017-12-09T05:00:25.830Z,2.50
2017-12-09T05:02:58.605Z,2.07
2017-12-09T05:05:31.591Z,3.00
2017-12-09T05:08:04.970Z,3.00
2017-12-09T05:10:37.682Z,2.80
2017-12-09T05:13:11.377Z,2.00
2017-12-09T05:15:44.926Z,2.10
2017-12-09T05:18:18.548Z,2.53
2017-12-09T05:20:51.516Z,2.60
2017-12-09T05:23:24.222Z,1.80
2017-12-09T05:25:58.340Z,2.30
2017-12-09T05:28:31.346Z,2.03
2017-12-09T05:31:03.973Z,1.97
2017-12-09T05:33:36.773Z,1.97
2017-12-09T05:36:09.794Z,2.43
2017-12-09T05:38:42.262Z,1.90
2017-12-09T05:41:14.806Z,1.97
2017-12-09T05:43:47.317Z,1.50
2017-12-09T05:46:20.597Z,2.77
2017-12-09T05:48:53.466Z,2.03
2017-12-09T05:51:25.952Z,2.20
2017-12-09T05:53:58.416Z,2.27
2017-12-09T05:56:32.605Z,2.40
2017-12-09T05:59:05.328Z,2.53
2017-12-09T06:01:37.867Z,2.37
2017-12-09T06:04:10.402Z,2.10
2017-12-09T06:06:42.917Z,3.07
2017-12-09T06:09:15.432Z,3.53
2017-12-09T06:11:47.995Z,2.30
2017-12-09T06:14:21.437Z,2.20
2017-12-09T06:16:54.642Z,2.20
2017-12-09T06:19:28.702Z,2.23
2017-12-09T06:22:02.060Z,1.90
2017-12-09T06:24:35.042Z,2.87
2017-12-09T06:27:07.675Z,2.00
2017-12-09T06:29:41.265Z,2.30
2017-12-09T06:32:15.329Z,2.17
2017-12-09T06:34:49.232Z,1.80
2017-12-09T06:37:21.938Z,2.00
2017-12-09T06:39:54.354Z,2.23
2017-12-09T06:42:27.101Z,2.10
2017-12-09T06:44:59.631Z,2.50
2017-12-09T06:47:32.130Z,1.80
2017-12-09T06:50:05.538Z,2.20
2017-12-09T06:52:38.363Z,2.17
2017-12-09T06:55:11.746Z,2.73
2017-12-09T06:57:44.243Z,2.30
2017-12-09T07:00:16.791Z,2.40
2017-12-09T07:02:49.297Z,2.90
2017-12-09T07:05:21.978Z,3.03
2017-12-09T07:07:55.101Z,2.73
2017-12-09T07:10:28.379Z,2.13
2017-12-09T07:13:02.274Z,1.93
2017-12-09T07:15:35.755Z,2.80
2017-12-09T07:18:09.349Z,3.00
2017-12-09T07:20:42.150Z,2.60
2017-12-09T07:23:15.617Z,2.63
2017-12-09T07:25:48.175Z,2.70
2017-12-09T07:28:20.765Z,2.70
2017-12-09T07:30:53.791Z,2.73
2017-12-09T07:33:27.009Z,2.80
2017-12-09T07:36:00.094Z,4.10
2017-12-09T07:38:32.631Z,2.30
2017-12-09T07:41:05.501Z,3.03
2017-12-09T07:43:38.480Z,2.60
2017-12-09T07:46:10.982Z,2.67
2017-12-09T07:48:43.775Z,2.30
2017-12-09T07:51:17.264Z,2.67
2017-12-09T07:53:50.058Z,2.70
2017-12-09T07:56:22.712Z,2.83
2017-12-09T07:58:55.574Z,2.83
2017-12-09T08:01:28.674Z,2.77
2017-12-09T08:04:01.188Z,2.70
2017-12-09T08:06:34.624Z,2.73
2017-12-09T08:09:07.060Z,2.50
2017-12-09T08:11:39.582Z,2.23
2017-12-09T08:14:11.966Z,2.20
2017-12-09T08:16:44.746Z,2.10
2017-12-09T08:19:18.182Z,2.00
2017-12-09T08:21:52.356Z,2.50
2017-12-09T08:24:25.121Z,2.33
2017-12-09T08:26:58.281Z,2.80
2017-12-09T08:29:31.638Z,2.30
2017-12-09T08:32:04.346Z,2.40
2017-12-09T08:34:37.579Z,2.67
2017-12-09T08:37:10.355Z,2.83
2017-12-09T08:39:44.052Z,2.53
2017-12-09T08:42:16.998Z,2.00
2017-12-09T08:44:50.524Z,2.20
2017-12-09T08:47:23.139Z,2.20
2017-12-09T08:49:55.885Z,2.90
2017-12-09T08:52:28.678Z,2.53
2017-12-09T08:55:01.098Z,2.30
2017-12-09T08:57:33.731Z,2.33
2017-12-09T09:00:07.416Z,3.40
2017-12-09T09:02:40.008Z,2.77
2017-12-09T09:05:12.529Z,2.60
2017-12-09T09:07:44.995Z,2.20
2017-12-09T09:10:18.298Z,2.40
2017-12-09T09:12:50.820Z,2.33
2017-12-09T09:15:23.274Z,2.50
2017-12-09T09:17:55.858Z,2.23
2017-12-09T09:20:29.062Z,2.17
2017-12-09T09:23:02.099Z,2.73
2017-12-09T09:25:34.579Z,2.50
2017-12-09T09:28:07.066Z,2.23
2017-12-09T09:30:39.866Z,2.00
2017-12-09T09:33:12.946Z,2.57
2017-12-09T09:35:46.347Z,2.33
2017-12-09T09:38:19.125Z,2.53
2017-12-09T09:40:51.995Z,2.10
2017-12-09T09:43:29.409Z,1.90
2017-12-09T09:46:02.976Z,2.40
2017-12-09T09:48:35.445Z,2.10
2017-12-09T09:51:08.198Z,2.10
2017-12-09T09:53:41.182Z,2.77
2017-12-09T09:56:15.052Z,2.10
2017-12-09T09:58:48.393Z,1.80
2017-12-09T10:01:20.958Z,2.13
2017-12-09T10:03:53.594Z,1.97
2017-12-09T10:06:26.902Z,2.37
2017-12-09T10:09:00.088Z,1.80
2017-12-09T10:11:32.908Z,1.30
2017-12-09T10:14:05.556Z,2.47
2017-12-09T10:16:38.214Z,2.43
2017-12-09T10:19:10.658Z,2.70
2017-12-09T10:21:43.280Z,3.07
2017-12-09T10:24:16.690Z,2.50
2017-12-09T10:26:49.510Z,2.20
2017-12-09T10:29:23.700Z,2.30
2017-12-09T10:31:56.545Z,2.60
2017-12-09T10:34:29.898Z,1.70
2017-12-09T10:37:03.392Z,1.80
2017-12-09T10:39:35.845Z,2.00
2017-12-09T10:42:08.809Z,1.90
2017-12-09T10:44:41.325Z,1.50
2017-12-09T10:47:14.529Z,1.83
2017-12-09T10:49:48.122Z,1.57
2017-12-09T10:52:20.990Z,1.70
2017-12-09T10:54:54.375Z,1.70
2017-12-09T10:57:27.693Z,2.10
2017-12-09T11:00:00.467Z,2.10
2017-12-09T11:02:33.675Z,2.03
2017-12-09T11:05:07.203Z,2.80
2017-12-09T11:07:40.554Z,2.03
2017-12-09T11:10:14.192Z,1.83
2017-12-09T11:12:47.475Z,1.63
2017-12-09T11:15:20.809Z,1.93
2017-12-09T11:17:53.583Z,1.90
2017-12-09T11:20:27.396Z,2.00
2017-12-09T11:23:00.402Z,1.97
2017-12-09T11:25:32.923Z,1.70
2017-12-09T11:28:05.453Z,2.10
2017-12-09T11:30:37.933Z,2.30
2017-12-09T11:33:10.373Z,2.23
2017-12-09T11:35:43.713Z,2.10
2017-12-09T11:38:16.597Z,1.53
2017-12-09T11:40:49.037Z,2.00
2017-12-09T11:43:23.172Z,2.00
2017-12-09T11:45:55.914Z,2.07
2017-12-09T11:48:28.615Z,2.10
2017-12-09T11:51:01.067Z,2.67
2017-12-09T11:53:33.491Z,2.20
2017-12-09T11:56:06.158Z,2.17
2017-12-09T11:58:39.036Z,1.50
2017-12-09T12:01:12.460Z,1.73
2017-12-09T12:03:46.026Z,1.63
2017-12-09T12:06:18.769Z,1.90
2017-12-09T12:08:51.280Z,1.40
2017-12-09T12:11:24.451Z,2.00
2017-12-09T12:13:58.241Z,2.33
2017-12-09T12:16:31.480Z,1.60
2017-12-09T12:19:05.162Z,1.40
2017-12-09T12:21:37.636Z,1.60
2017-12-09T12:24:12.286Z,1.90
2017-12-09T12:26:44.982Z,1.70
2017-12-09T12:29:18.375Z,2.23
2017-12-09T12:31:52.042Z,1.90
2017-12-09T12:34:24.964Z,1.87
2017-12-09T12:36:57.683Z,1.67
2017-12-09T12:39:30.664Z,1.97
2017-12-09T12:42:03.976Z,1.80
2017-12-09T12:44:37.293Z,1.60
2017-12-09T12:47:10.184Z,1.63
2017-12-09T12:49:42.725Z,1.60
2017-12-09T12:52:15.255Z,1.60
2017-12-09T12:54:48.489Z,1.60
2017-12-09T12:57:21.168Z,1.43
2017-12-09T12:59:53.650Z,1.70
2017-12-09T13:02:26.200Z,1.80
2017-12-09T13:04:59.504Z,2.20
2017-12-09T13:07:33.633Z,1.60
2017-12-09T13:10:06.481Z,3.10
2017-12-09T13:12:38.932Z,1.57
2017-12-09T13:15:12.128Z,1.90
2017-12-09T13:17:45.862Z,1.73
2017-12-09T13:20:18.514Z,1.57
2017-12-09T13:22:52.062Z,2.40
2017-12-09T13:25:24.771Z,2.03
2017-12-09T13:27:57.615Z,2.17
2017-12-09T13:30:30.229Z,2.50
2017-12-09T13:33:03.508Z,1.73
2017-12-09T13:35:36.307Z,1.43
2017-12-09T13:38:09.632Z,1.80
2017-12-09T13:40:43.247Z,2.03
2017-12-09T13:43:16.051Z,1.87
2017-12-09T13:45:48.906Z,1.70
2017-12-09T13:48:21.375Z,1.90
2017-12-09T13:50:53.996Z,1.63
2017-12-09T13:53:26.723Z,1.60
2017-12-09T13:56:00.025Z,1.90
2017-12-09T13:58:32.800Z,2.10
2017-12-09T14:01:06.183Z,2.00
2017-12-09T14:03:38.950Z,1.83
2017-12-09T14:06:12.193Z,1.77
2017-12-09T14:08:44.750Z,1.50
2017-12-09T14:11:18.102Z,1.70
2017-12-09T14:13:50.679Z,1.57
2017-12-09T14:16:23.870Z,1.73
2017-12-09T14:18:57.380Z,1.33
2017-12-09T14:21:30.647Z,2.00
2017-12-09T14:24:04.054Z,1.87
2017-12-09T14:26:36.846Z,1.90
2017-12-09T14:29:09.518Z,1.60
2017-12-09T14:31:41.868Z,1.67
2017-12-09T14:34:14.474Z,1.20
2017-12-09T14:36:46.932Z,1.30
2017-12-09T14:39:20.386Z,1.37
2017-12-09T14:41:53.380Z,1.67
2017-12-09T14:44:26.872Z,1.20
2017-12-09T14:46:59.799Z,1.10
2017-12-09T14:49:33.217Z,1.50
2017-12-09T14:52:06.764Z,2.63
2017-12-09T14:54:39.643Z,1.70
2017-12-09T14:57:12.097Z,2.10
2017-12-09T14:59:44.774Z,1.47
2017-12-09T15:02:17.334Z,1.70
2017-12-09T15:04:50.028Z,1.53
2017-12-09T15:07:22.456Z,1.50
2017-12-09T15:09:54.902Z,1.43
2017-12-09T15:12:28.311Z,1.77
2017-12-09T15:15:01.114Z,1.60
2017-12-09T15:17:34.276Z,2.43
2017-12-09T15:20:06.818Z,2.03
2017-12-09T15:22:39.250Z,2.00
2017-12-09T15:25:11.816Z,1.87
2017-12-09T15:27:44.421Z,1.97
2017-12-09T15:30:17.227Z,1.50
2017-12-09T15:32:50.443Z,1.50
2017-12-09T15:35:23.791Z,1.70
2017-12-09T15:37:57.526Z,2.10
2017-12-09T15:40:30.382Z,1.70
2017-12-09T15:43:03.523Z,2.00
2017-12-09T15:45:36.512Z,1.70
2017-12-09T15:48:09.691Z,2.00
2017-12-09T15:50:43.141Z,2.20
2017-12-09T15:53:15.562Z,2.30
2017-12-09T15:55:48.681Z,1.80
2017-12-09T15:58:21.594Z,2.20
2017-12-09T16:00:54.101Z,2.20
2017-12-09T16:03:26.672Z,1.90
2017-12-09T16:05:59.423Z,1.70
2017-12-09T16:08:32.107Z,1.60
2017-12-09T16:11:04.634Z,1.70
2017-12-09T16:13:37.988Z,2.30
2017-12-09T16:16:10.907Z,2.73
2017-12-09T16:18:44.043Z,1.80
2017-12-09T16:21:16.511Z,2.13
2017-12-09T16:23:48.975Z,1.60
2017-12-09T16:26:21.694Z,2.17
2017-12-09T16:28:54.984Z,1.73
2017-12-09T16:31:27.651Z,2.87
2017-12-09T16:34:00.085Z,2.27
2017-12-09T16:36:33.661Z,2.00
2017-12-09T16:39:06.943Z,1.80
2017-12-09T16:41:39.371Z,2.40
2017-12-09T16:44:12.769Z,1.73
2017-12-09T16:46:47.242Z,2.27
2017-12-09T16:49:20.389Z,2.10
2017-12-09T16:51:53.821Z,1.50
2017-12-09T16:54:27.378Z,2.17
2017-12-09T16:57:00.812Z,1.87
2017-12-09T16:59:33.425Z,2.20
2017-12-09T17:02:06.689Z,1.80
2017-12-09T17:04:39.697Z,2.07
2017-12-09T17:07:12.469Z,1.73
2017-12-09T17:09:45.549Z,2.00
2017-12-09T17:12:18.190Z,2.60
2017-12-09T17:14:50.740Z,2.07
2017-12-09T17:17:24.276Z,2.40
2017-12-09T17:19:56.731Z,1.93
2017-12-09T17:22:29.522Z,1.40
2017-12-09T17:25:03.054Z,1.50
2017-12-09T17:27:36.480Z,1.90
2017-12-09T17:30:09.030Z,2.13
2017-12-09T17:32:41.584Z,1.90
2017-12-09T17:35:14.166Z,1.87
2017-12-09T17:37:46.888Z,2.17
2017-12-09T17:40:20.299Z,1.50
2017-12-09T17:42:53.751Z,2.10
2017-12-09T17:45:27.137Z,2.20
2017-12-09T17:48:00.100Z,1.40
2017-12-09T17:50:33.554Z,1.50
2017-12-09T17:53:05.991Z,1.93
2017-12-09T17:55:38.621Z,1.40
2017-12-09T17:58:11.552Z,2.10
2017-12-09T18:00:44.675Z,1.80
2017-12-09T18:03:18.049Z,1.27
2017-12-09T18:05:50.925Z,1.80
2017-12-09T18:08:24.321Z,1.70
2017-12-09T18:10:56.901Z,1.53
2017-12-09T18:13:29.759Z,1.57
2017-12-09T18:16:02.436Z,1.93
2017-12-09T18:18:35.705Z,2.33
2017-12-09T18:21:08.429Z,1.57
2017-12-09T18:23:41.122Z,1.90
2017-12-09T18:26:13.682Z,1.27
2017-12-09T18:28:47.009Z,1.70
2017-12-09T18:31:19.887Z,1.67
2017-12-09T18:33:52.442Z,1.50
2017-12-09T18:36:25.794Z,1.53
2017-12-09T18:38:58.734Z,2.30
2017-12-09T18:41:32.083Z,1.50
2017-12-09T18:44:05.315Z,2.50
2017-12-09T18:46:37.926Z,2.20
2017-12-09T18:49:10.887Z,2.10
2017-12-09T18:51:45.241Z,1.90
2017-12-09T18:54:18.607Z,2.00
2017-12-09T18:56:51.468Z,1.80
2017-12-09T18:59:24.872Z,1.50
2017-12-09T19:01:57.561Z,1.87
2017-12-09T19:04:30.447Z,2.40
2017-12-09T19:07:03.558Z,1.40
2017-12-09T19:09:36.510Z,1.60
2017-12-09T19:12:11.361Z,1.90
2017-12-09T19:14:45.683Z,2.27
2017-12-09T19:17:18.824Z,2.13
2017-12-09T19:19:53.282Z,1.60
2017-12-09T19:22:26.151Z,1.93
2017-12-09T19:24:59.203Z,1.73
2017-12-09T19:27:33.365Z,1.80
2017-12-09T19:30:06.959Z,1.77
2017-12-09T19:32:40.514Z,1.80
2017-12-09T19:35:14.682Z,1.63
2017-12-09T19:37:49.189Z,1.60
2017-12-09T19:40:24.641Z,2.23
2017-12-09T19:43:00.484Z,2.00
2017-12-09T19:45:35.729Z,1.80
2017-12-09T19:48:11.120Z,2.03
2017-12-09T19:50:46.968Z,2.30
2017-12-09T19:53:21.617Z,2.27
2017-12-09T19:55:58.371Z,1.67
2017-12-09T19:58:34.525Z,1.50
2017-12-09T20:01:09.895Z,1.33
2017-12-09T20:03:45.685Z,1.97
2017-12-09T20:06:20.896Z,2.03
2017-12-09T20:08:56.246Z,1.60
2017-12-09T20:11:31.637Z,1.87
2017-12-09T20:14:07.492Z,2.00
2017-12-09T20:16:42.750Z,1.73
2017-12-09T20:19:19.036Z,1.93
2017-12-09T20:21:54.725Z,1.53
2017-12-09T20:24:31.224Z,1.73
2017-12-09T20:27:07.891Z,2.07
2017-12-09T20:29:43.632Z,1.80
2017-12-09T20:32:19.379Z,1.83
2017-12-09T20:34:55.369Z,1.80
2017-12-09T20:37:30.641Z,1.43
2017-12-09T20:40:05.931Z,1.70
2017-12-09T20:42:42.156Z,2.20
2017-12-09T20:45:17.656Z,2.07
2017-12-09T20:47:53.523Z,1.30
2017-12-09T20:50:29.353Z,1.83
2017-12-09T20:53:05.824Z,1.80
2017-12-09T20:55:41.485Z,1.83
2017-12-09T20:58:16.853Z,2.00
2017-12-09T21:00:52.502Z,1.80
2017-12-09T21:03:28.373Z,1.77
2017-12-09T21:06:03.328Z,1.57
2017-12-09T21:08:39.320Z,1.50
2017-12-09T21:11:14.634Z,1.93
2017-12-09T21:13:50.438Z,2.13
2017-12-09T21:16:25.625Z,2.07
2017-12-09T21:19:01.671Z,2.43
2017-12-09T21:21:37.540Z,1.53
2017-12-09T21:24:13.513Z,1.40
2017-12-09T21:26:49.889Z,1.57
2017-12-09T21:29:26.078Z,1.77
2017-12-09T21:32:01.074Z,1.37
2017-12-09T21:34:36.517Z,1.90
2017-12-09T21:37:12.324Z,1.60
2017-12-09T21:39:47.895Z,1.20
2017-12-09T21:42:23.302Z,1.90
2017-12-09T21:44:59.847Z,1.30
2017-12-09T21:47:35.788Z,1.43
2017-12-09T21:50:27.614Z,1.77
2017-12-09T21:53:03.514Z,1.40
2017-12-09T21:55:40.204Z,1.63
2017-12-09T21:58:17.392Z,1.83
2017-12-09T22:00:53.034Z,1.40
2017-12-09T22:03:28.598Z,1.37
2017-12-09T22:06:05.001Z,1.30
2017-12-09T22:08:40.734Z,1.50
2017-12-09T22:11:16.318Z,1.70
2017-12-09T22:13:51.921Z,1.40
2017-12-09T22:16:27.205Z,1.30
2017-12-09T22:19:00.931Z,1.30
2017-12-09T22:21:34.736Z,1.27
2017-12-09T22:24:07.980Z,1.37
2017-12-09T22:26:41.594Z,1.77
2017-12-09T22:29:14.919Z,1.00
2017-12-09T22:31:48.089Z,1.20
2017-12-09T22:34:20.746Z,1.60
2017-12-09T22:36:53.379Z,1.70
2017-12-09T22:39:26.679Z,1.10
2017-12-09T22:41:59.156Z,1.47
2017-12-09T22:44:32.333Z,1.50
2017-12-09T22:47:05.175Z,1.30
2017-12-09T22:49:38.503Z,1.30
2017-12-09T22:52:11.321Z,1.20
2017-12-09T22:54:43.823Z,1.30
2017-12-09T22:57:17.161Z,1.30
2017-12-09T22:59:49.899Z,1.43
2017-12-09T23:02:22.764Z,1.43
2017-12-09T23:04:56.407Z,1.50
2017-12-09T23:07:29.907Z,1.30
2017-12-09T23:10:03.732Z,1.20
2017-12-09T23:12:36.551Z,1.73
2017-12-09T23:15:09.313Z,1.30
2017-12-09T23:17:41.919Z,1.10
2017-12-09T23:20:15.244Z,1.20
2017-12-09T23:22:49.339Z,1.10
2017-12-09T23:25:22.344Z,1.27
2017-12-09T23:27:55.638Z,1.20
2017-12-09T23:30:28.946Z,1.20
2017-12-09T23:33:01.734Z,1.10
2017-12-09T23:35:34.476Z,1.13
2017-12-09T23:38:07.643Z,1.10
2017-12-09T23:40:40.872Z,1.00
2017-12-09T23:43:14.319Z,1.10
2017-12-09T23:45:47.864Z,1.00
2017-12-09T23:48:21.534Z,1.60
2017-12-09T23:50:54.363Z,1.03
2017-12-09T23:53:26.766Z,1.10
2017-12-09T23:55:59.732Z,1.00
2017-12-09T23:58:33.497Z,1.17
